Boylston, Massachusetts
Current Conditions -  °F | °C
As of 7:52 PM on Monday 20 Oct 2014 (Local Time) from KFIT Reporting Station
Broken Clouds Broken Clouds  
Wind Chill: 52°   Ceiling: 12000
Heat Index: 52°   Visibility: 10mi
Dew Point: 35°   Wind: 3mph
Humidity: 53%   Direction: 170°S
Pressure: 29.99"   Gusts: NA
Location:  42.39°N, 71.7°W
Report Text: KFIT 202352Z AUTO 17003KT 10SM SCT090 BKN120 11/02 A2999 RMK AO2 SLP159 T01110017 10139 20111 53006 TSNO
Loading
Personal Weather Stations






























Interactive Weather Map
Tropical Storm Tracking
New forecast layout! Learn more

10-Day Weather Forecast

Advertisements
Track Severe Weather on mobile